createdAt,value
2022-09-21T00:01:12.697Z,13.50
2022-09-21T00:03:41.592Z,13.45
2022-09-21T00:06:10.167Z,13.38
2022-09-21T00:08:38.413Z,13.29
2022-09-21T00:11:06.912Z,13.25
2022-09-21T00:13:37.331Z,13.25
2022-09-21T00:16:06.741Z,13.27
2022-09-21T00:18:35.127Z,13.26
2022-09-21T00:21:05.943Z,13.28
2022-09-21T00:23:35.236Z,13.25
2022-09-21T00:26:08.013Z,13.20
2022-09-21T00:28:36.290Z,13.16
2022-09-21T00:31:04.875Z,13.15
2022-09-21T00:33:33.049Z,13.16
2022-09-21T00:36:05.030Z,13.12
2022-09-21T00:38:33.194Z,13.11
2022-09-21T00:41:01.090Z,13.12
2022-09-21T00:43:28.953Z,13.10
2022-09-21T00:45:59.910Z,13.11
2022-09-21T00:48:28.440Z,13.13
2022-09-21T00:50:58.672Z,13.12
2022-09-21T00:53:27.850Z,13.09
2022-09-21T00:55:57.365Z,13.08
2022-09-21T00:58:27.664Z,13.09
2022-09-21T01:00:56.304Z,13.08
2022-09-21T01:03:24.300Z,13.03
2022-09-21T01:05:52.184Z,13.03
2022-09-21T01:08:21.294Z,13.04
2022-09-21T01:10:58.399Z,13.04
2022-09-21T01:13:34.137Z,13.01
2022-09-21T01:16:07.485Z,12.99
2022-09-21T01:18:41.235Z,13.01
2022-09-21T01:21:15.814Z,12.99
2022-09-21T01:23:50.793Z,12.97
2022-09-21T01:26:25.849Z,12.94
2022-09-21T01:29:08.870Z,12.93
2022-09-21T01:31:39.743Z,12.95
2022-09-21T01:34:10.326Z,12.97
2022-09-21T01:36:40.521Z,12.97
2022-09-21T01:39:11.194Z,12.96
2022-09-21T01:41:40.795Z,12.98
2022-09-21T01:44:11.643Z,13.00
2022-09-21T01:46:39.825Z,13.03
2022-09-21T01:49:11.395Z,13.10
2022-09-21T01:51:43.051Z,13.15
2022-09-21T01:54:12.692Z,13.21
2022-09-21T01:56:43.885Z,13.23
2022-09-21T01:59:16.342Z,13.28
2022-09-21T02:01:46.732Z,13.29
2022-09-21T02:04:14.600Z,13.28
2022-09-21T02:06:43.852Z,13.32
2022-09-21T02:09:12.179Z,13.37
2022-09-21T02:11:42.476Z,13.42
2022-09-21T02:14:11.647Z,13.45
2022-09-21T02:16:40.355Z,13.47
2022-09-21T02:19:12.780Z,13.47
2022-09-21T02:21:46.786Z,13.54
2022-09-21T02:24:22.242Z,13.60
2022-09-21T02:26:52.587Z,13.65
2022-09-21T02:29:25.393Z,13.70
2022-09-21T02:31:55.471Z,13.75
2022-09-21T02:34:28.459Z,13.78
2022-09-21T02:36:58.163Z,13.82
2022-09-21T02:39:29.458Z,13.83
2022-09-21T02:42:01.343Z,13.86
2022-09-21T02:44:33.107Z,13.88
2022-09-21T02:47:05.061Z,13.92
2022-09-21T02:49:35.014Z,13.88
2022-09-21T02:52:05.346Z,13.83
2022-09-21T02:54:34.143Z,13.82
2022-09-21T02:57:02.823Z,13.83
2022-09-21T02:59:31.199Z,13.85
2022-09-21T03:01:59.232Z,13.87
2022-09-21T03:04:27.315Z,13.90
2022-09-21T03:06:56.543Z,13.90
2022-09-21T03:09:24.517Z,13.90
2022-09-21T03:11:52.295Z,13.91
2022-09-21T03:14:20.024Z,13.93
2022-09-21T03:16:47.899Z,13.93
2022-09-21T03:19:16.101Z,13.93
2022-09-21T03:21:44.921Z,13.92
2022-09-21T03:24:12.844Z,13.93
2022-09-21T03:26:41.007Z,13.91
2022-09-21T03:29:08.811Z,13.86
2022-09-21T03:31:36.650Z,13.77
2022-09-21T03:34:04.503Z,13.74
2022-09-21T03:36:32.396Z,13.72
2022-09-21T03:39:00.369Z,13.67
2022-09-21T03:41:28.135Z,13.62
2022-09-21T03:43:55.990Z,13.59
2022-09-21T03:46:24.290Z,13.57
2022-09-21T03:48:52.071Z,13.55
2022-09-21T03:51:19.879Z,13.55
2022-09-21T03:53:47.761Z,13.53
2022-09-21T03:56:15.711Z,13.50
2022-09-21T03:58:43.515Z,13.41
2022-09-21T04:01:11.308Z,13.35
2022-09-21T04:03:39.229Z,13.35
2022-09-21T04:06:09.755Z,13.37
2022-09-21T04:08:37.537Z,13.39
2022-09-21T04:11:11.339Z,13.40
2022-09-21T04:13:39.579Z,13.36
2022-09-21T04:16:07.440Z,13.29
2022-09-21T04:18:35.488Z,13.24
2022-09-21T04:21:03.422Z,13.26
2022-09-21T04:23:31.986Z,13.27
2022-09-21T04:25:59.884Z,13.27
2022-09-21T04:28:28.745Z,13.26
2022-09-21T04:30:56.704Z,13.22
2022-09-21T04:33:24.506Z,13.18
2022-09-21T04:35:55.425Z,13.10
2022-09-21T04:38:23.463Z,13.03
2022-09-21T04:40:57.583Z,12.99
2022-09-21T04:43:25.788Z,13.00
2022-09-21T04:45:53.710Z,13.00
2022-09-21T04:48:21.515Z,13.04
2022-09-21T04:50:49.497Z,13.11
2022-09-21T04:53:17.430Z,13.18
2022-09-21T04:55:45.944Z,13.33
2022-09-21T04:58:13.875Z,13.58
2022-09-21T05:00:41.826Z,13.79
2022-09-21T05:03:09.701Z,13.96
2022-09-21T05:05:37.792Z,14.13
2022-09-21T05:08:05.702Z,14.29
2022-09-21T05:10:33.523Z,14.37
2022-09-21T05:13:01.398Z,14.37
2022-09-21T05:15:29.303Z,14.38
2022-09-21T05:17:57.174Z,14.39
2022-09-21T05:20:24.927Z,14.41
2022-09-21T05:22:52.761Z,14.42
2022-09-21T05:25:20.604Z,14.44
2022-09-21T05:27:48.806Z,14.45
2022-09-21T05:30:17.425Z,14.48
2022-09-21T05:32:48.207Z,14.46
2022-09-21T05:35:23.239Z,14.39
2022-09-21T05:37:54.998Z,14.40
2022-09-21T05:40:23.631Z,14.44
2022-09-21T05:42:52.354Z,14.48
2022-09-21T05:45:21.157Z,14.52
2022-09-21T05:47:53.058Z,14.55
2022-09-21T05:50:26.674Z,14.59
2022-09-21T05:53:01.454Z,14.60
2022-09-21T05:55:34.468Z,14.62
2022-09-21T05:58:09.062Z,14.65
2022-09-21T06:00:40.462Z,14.69
2022-09-21T06:03:25.786Z,14.72
2022-09-21T06:05:53.619Z,14.76
2022-09-21T06:08:21.984Z,14.80
2022-09-21T06:10:50.213Z,14.85
2022-09-21T06:13:18.424Z,14.90
2022-09-21T06:15:46.337Z,14.97
2022-09-21T06:18:17.734Z,15.05
2022-09-21T06:20:46.442Z,15.12
2022-09-21T06:23:14.444Z,15.18
2022-09-21T06:25:42.269Z,15.24
2022-09-21T06:28:11.057Z,15.30
2022-09-21T06:30:41.498Z,15.36
2022-09-21T06:33:09.358Z,15.42
2022-09-21T06:35:37.142Z,15.47
2022-09-21T06:38:05.674Z,15.50
2022-09-21T06:40:34.572Z,15.52
2022-09-21T06:43:03.638Z,15.58
2022-09-21T06:45:31.479Z,15.67
2022-09-21T06:47:59.435Z,15.78
2022-09-21T06:50:27.284Z,15.92
2022-09-21T06:52:55.143Z,16.10
2022-09-21T06:55:22.997Z,16.26
2022-09-21T06:57:51.085Z,16.45
2022-09-21T07:00:19.072Z,16.69
2022-09-21T07:02:47.162Z,16.89
2022-09-21T07:05:16.222Z,17.07
2022-09-21T07:07:44.062Z,17.39
2022-09-21T07:10:15.858Z,17.80
2022-09-21T07:12:45.255Z,18.36
2022-09-21T07:15:14.838Z,18.91
2022-09-21T07:17:50.051Z,19.48
2022-09-21T07:20:19.820Z,20.06
2022-09-21T07:22:47.726Z,20.58
2022-09-21T07:25:16.035Z,21.01
2022-09-21T07:27:43.843Z,21.43
2022-09-21T07:30:12.588Z,21.85
2022-09-21T07:32:40.555Z,22.18
2022-09-21T07:35:08.713Z,22.24
2022-09-21T07:37:36.718Z,22.14
2022-09-21T07:40:05.908Z,22.08
2022-09-21T07:42:34.142Z,22.00
2022-09-21T07:45:04.304Z,21.90
2022-09-21T07:47:32.593Z,21.85
2022-09-21T07:50:00.407Z,21.81
2022-09-21T07:52:28.223Z,21.78
2022-09-21T07:54:56.180Z,21.78
2022-09-21T07:57:42.102Z,21.83
2022-09-21T08:00:11.331Z,21.87
2022-09-21T08:02:40.886Z,21.85
2022-09-21T08:05:11.872Z,21.85
2022-09-21T08:07:39.647Z,21.80
2022-09-21T08:10:10.874Z,21.70
2022-09-21T08:12:38.798Z,21.57
2022-09-21T08:15:07.676Z,21.36
2022-09-21T08:17:38.067Z,21.02
2022-09-21T08:20:06.754Z,20.64
2022-09-21T08:22:34.500Z,20.29
2022-09-21T08:25:04.363Z,20.32
2022-09-21T08:27:32.292Z,20.57
2022-09-21T08:30:00.296Z,20.86
2022-09-21T08:32:49.814Z,20.95
2022-09-21T08:35:16.299Z,21.04
2022-09-21T08:37:44.168Z,21.15
2022-09-21T08:40:12.152Z,21.25
2022-09-21T08:42:46.396Z,21.37
2022-09-21T08:45:18.820Z,21.46
2022-09-21T08:47:48.664Z,21.51
2022-09-21T08:50:34.919Z,21.59
2022-09-21T08:53:06.217Z,21.69
2022-09-21T08:55:34.795Z,21.89
2022-09-21T08:58:02.558Z,22.13
2022-09-21T09:00:34.742Z,22.30
2022-09-21T09:03:13.345Z,22.48
2022-09-21T09:05:47.776Z,22.65
2022-09-21T09:08:41.535Z,22.78
2022-09-21T09:11:16.370Z,22.99
2022-09-21T09:13:51.059Z,23.22
2022-09-21T09:16:26.186Z,23.55
2022-09-21T09:18:55.125Z,23.58
2022-09-21T09:21:31.504Z,23.59
2022-09-21T09:24:03.226Z,23.53
2022-09-21T09:26:35.810Z,23.73
2022-09-21T09:29:09.391Z,23.75
2022-09-21T09:31:38.314Z,23.53
2022-09-21T09:34:10.981Z,23.30
2022-09-21T09:36:57.898Z,23.08
2022-09-21T09:39:28.522Z,22.74
2022-09-21T09:42:13.759Z,22.47
2022-09-21T09:45:02.016Z,22.34
2022-09-21T09:47:36.463Z,22.48
2022-09-21T09:50:09.080Z,22.66
2022-09-21T09:52:37.422Z,22.82
2022-09-21T09:55:15.501Z,22.83
2022-09-21T09:57:43.698Z,22.77
2022-09-21T10:00:14.616Z,22.71
2022-09-21T10:02:49.766Z,22.98
2022-09-21T10:05:22.739Z,23.24
2022-09-21T10:07:51.007Z,23.24
2022-09-21T10:10:31.103Z,23.28
2022-09-21T10:13:05.369Z,23.28
2022-09-21T10:15:33.411Z,23.23
2022-09-21T10:18:05.110Z,23.14
2022-09-21T10:20:33.299Z,23.05
2022-09-21T10:23:02.744Z,22.94
2022-09-21T10:25:31.174Z,22.86
2022-09-21T10:27:59.167Z,22.76
2022-09-21T10:30:33.496Z,22.56
2022-09-21T10:33:01.743Z,22.33
2022-09-21T10:35:29.930Z,22.33
2022-09-21T10:38:10.887Z,22.36
2022-09-21T10:40:39.609Z,22.34
2022-09-21T10:43:23.694Z,22.33
2022-09-21T10:45:56.353Z,22.31
2022-09-21T10:48:25.133Z,22.13
2022-09-21T10:50:54.338Z,22.13
2022-09-21T10:53:24.951Z,22.28
2022-09-21T10:56:17.024Z,22.25
2022-09-21T10:58:59.655Z,22.12
2022-09-21T11:01:28.524Z,21.93
2022-09-21T11:03:58.672Z,21.58
2022-09-21T11:06:29.347Z,21.38
2022-09-21T11:09:01.670Z,21.19
2022-09-21T11:11:42.659Z,21.06
2022-09-21T11:14:19.955Z,20.87
2022-09-21T11:16:51.399Z,20.67
2022-09-21T11:19:28.354Z,20.55
2022-09-21T11:22:01.674Z,20.55
2022-09-21T11:24:36.218Z,20.57
2022-09-21T11:27:07.858Z,20.52
2022-09-21T11:29:41.844Z,20.48
2022-09-21T11:32:22.511Z,20.40
2022-09-21T11:34:58.366Z,20.29
2022-09-21T11:37:34.752Z,20.24
2022-09-21T11:40:14.994Z,20.18
2022-09-21T11:42:48.801Z,20.09
2022-09-21T11:45:26.285Z,20.06
2022-09-21T11:48:04.907Z,20.01
2022-09-21T11:50:40.189Z,19.97
2022-09-21T11:53:17.779Z,19.97
2022-09-21T11:55:53.969Z,19.93
2022-09-21T11:58:25.582Z,19.84
2022-09-21T12:01:01.744Z,19.75
2022-09-21T12:03:40.708Z,19.63
2022-09-21T12:06:16.719Z,19.53
2022-09-21T12:08:53.914Z,19.49
2022-09-21T12:11:29.172Z,19.47
2022-09-21T12:14:01.093Z,19.45
2022-09-21T12:16:33.096Z,19.52
2022-09-21T12:19:05.496Z,19.55
2022-09-21T12:21:36.567Z,19.55
2022-09-21T12:24:05.538Z,19.58
2022-09-21T12:26:36.649Z,19.55
2022-09-21T12:29:07.697Z,19.50
2022-09-21T12:31:40.736Z,19.40
2022-09-21T12:34:11.915Z,19.37
2022-09-21T12:36:42.273Z,19.43
2022-09-21T12:39:15.415Z,19.49
2022-09-21T12:41:47.871Z,19.45
2022-09-21T12:44:20.114Z,19.37
2022-09-21T12:46:53.112Z,19.32
2022-09-21T12:49:23.887Z,19.24
2022-09-21T12:51:54.874Z,19.26
2022-09-21T12:54:28.325Z,19.28
2022-09-21T12:57:03.773Z,19.35
2022-09-21T12:59:44.006Z,19.39
2022-09-21T13:02:19.799Z,19.43
2022-09-21T13:04:53.907Z,19.42
2022-09-21T13:07:43.314Z,19.37
2022-09-21T13:10:19.277Z,19.36
2022-09-21T13:12:52.515Z,19.36
2022-09-21T13:15:24.695Z,19.36
2022-09-21T13:17:59.384Z,19.32
2022-09-21T13:20:27.975Z,19.26
2022-09-21T13:23:00.610Z,19.27
2022-09-21T13:25:29.985Z,19.29
2022-09-21T13:28:08.813Z,19.34
2022-09-21T13:30:38.798Z,19.39
2022-09-21T13:33:20.858Z,19.45
2022-09-21T13:35:53.628Z,19.49
2022-09-21T13:38:25.814Z,19.52
2022-09-21T13:40:57.811Z,19.52
2022-09-21T13:43:56.639Z,19.55
2022-09-21T13:46:43.968Z,19.55
2022-09-21T13:49:17.331Z,19.55
2022-09-21T13:51:51.954Z,19.56
2022-09-21T13:54:22.158Z,19.60
2022-09-21T13:56:57.973Z,19.65
2022-09-21T13:59:27.332Z,19.70
2022-09-21T14:01:55.588Z,19.71
2022-09-21T14:04:25.803Z,19.71
2022-09-21T14:06:54.606Z,19.65
2022-09-21T14:09:24.630Z,19.63
2022-09-21T14:11:57.012Z,19.59
2022-09-21T14:14:28.063Z,19.59
2022-09-21T14:16:57.354Z,19.60
2022-09-21T14:19:43.220Z,19.61
2022-09-21T14:22:37.231Z,19.61
2022-09-21T14:25:19.141Z,19.62
2022-09-21T14:27:48.079Z,19.64
2022-09-21T14:30:19.565Z,19.64
2022-09-21T14:33:06.269Z,19.64
2022-09-21T14:35:37.104Z,19.62
2022-09-21T14:38:10.843Z,19.54
2022-09-21T14:40:41.689Z,19.50
2022-09-21T14:43:15.052Z,19.49
2022-09-21T14:45:50.213Z,19.48
2022-09-21T14:48:20.891Z,19.45
2022-09-21T14:50:54.805Z,19.38
2022-09-21T14:53:35.087Z,19.32
2022-09-21T14:56:09.590Z,19.25
2022-09-21T14:58:47.200Z,19.17
2022-09-21T15:01:29.037Z,19.13
2022-09-21T15:04:04.256Z,19.13
2022-09-21T15:06:52.352Z,19.13
2022-09-21T15:09:54.044Z,19.14
2022-09-21T15:12:27.094Z,19.14
2022-09-21T15:14:59.201Z,19.12
2022-09-21T15:17:29.303Z,19.10
2022-09-21T15:19:59.170Z,19.07
2022-09-21T15:22:27.495Z,19.05
2022-09-21T15:24:56.482Z,19.05
2022-09-21T15:27:26.804Z,19.05
2022-09-21T15:29:56.252Z,19.04
2022-09-21T15:32:35.338Z,19.02
2022-09-21T15:35:04.587Z,18.99
2022-09-21T15:37:36.036Z,18.97
2022-09-21T15:40:05.375Z,18.97
2022-09-21T15:42:35.582Z,18.97
2022-09-21T15:45:13.502Z,18.97
2022-09-21T15:47:44.563Z,18.95
2022-09-21T15:50:13.713Z,18.93
2022-09-21T15:52:45.111Z,18.90
2022-09-21T15:55:17.374Z,18.86
2022-09-21T15:57:45.322Z,18.82
2022-09-21T16:00:21.526Z,18.81
2022-09-21T16:03:03.623Z,18.77
2022-09-21T16:05:33.482Z,18.74
2022-09-21T16:08:05.758Z,18.71
2022-09-21T16:10:38.348Z,18.67
2022-09-21T16:13:24.999Z,18.65
2022-09-21T16:16:02.651Z,18.61
2022-09-21T16:18:35.201Z,18.58
2022-09-21T16:21:09.074Z,18.52
2022-09-21T16:23:38.869Z,18.46
2022-09-21T16:26:06.684Z,18.39
2022-09-21T16:28:38.843Z,18.34
2022-09-21T16:31:29.305Z,18.30
2022-09-21T16:34:06.759Z,18.25
2022-09-21T16:36:44.906Z,18.22
2022-09-21T16:39:15.673Z,18.19
2022-09-21T16:41:46.725Z,18.17
2022-09-21T16:44:20.023Z,18.14
2022-09-21T16:46:50.847Z,18.09
2022-09-21T16:49:20.010Z,18.05
2022-09-21T16:51:48.744Z,18.01
2022-09-21T16:54:17.763Z,17.97
2022-09-21T16:56:45.853Z,17.96
2022-09-21T16:59:16.175Z,17.95
2022-09-21T17:01:44.086Z,17.94
2022-09-21T17:04:12.936Z,17.94
2022-09-21T17:06:40.759Z,17.94
2022-09-21T17:09:20.509Z,17.96
2022-09-21T17:11:50.645Z,17.97
2022-09-21T17:14:19.751Z,17.96
2022-09-21T17:16:49.364Z,17.96
2022-09-21T17:19:18.141Z,17.94
2022-09-21T17:21:46.547Z,17.92
2022-09-21T17:24:32.730Z,17.90
2022-09-21T17:27:03.768Z,17.87
2022-09-21T17:29:31.945Z,17.85
2022-09-21T17:31:59.722Z,17.82
2022-09-21T17:34:29.612Z,17.79
2022-09-21T17:36:57.587Z,17.77
2022-09-21T17:39:26.687Z,17.75
2022-09-21T17:41:56.890Z,17.74
2022-09-21T17:44:40.520Z,17.71
2022-09-21T17:47:12.620Z,17.65
2022-09-21T17:49:41.208Z,17.61
2022-09-21T17:52:31.341Z,17.56
2022-09-21T17:55:04.989Z,17.51
2022-09-21T17:57:40.422Z,17.47
2022-09-21T18:00:14.101Z,17.45
2022-09-21T18:02:42.610Z,17.44
2022-09-21T18:05:17.637Z,17.40
2022-09-21T18:07:46.071Z,17.34
2022-09-21T18:10:15.402Z,17.30
2022-09-21T18:13:00.330Z,17.26
2022-09-21T18:15:33.640Z,17.21
2022-09-21T18:18:07.299Z,17.18
2022-09-21T18:20:41.817Z,17.16
2022-09-21T18:23:18.804Z,17.14
2022-09-21T18:25:50.737Z,17.11
2022-09-21T18:28:23.027Z,17.08
2022-09-21T18:31:07.431Z,17.05
2022-09-21T18:33:41.591Z,17.05
2022-09-21T18:36:17.426Z,17.04
2022-09-21T18:38:48.802Z,17.01
2022-09-21T18:41:24.011Z,17.00
2022-09-21T18:43:57.848Z,16.96
2022-09-21T18:46:28.659Z,16.92
2022-09-21T18:48:59.931Z,16.82
2022-09-21T18:51:31.253Z,16.79
2022-09-21T18:54:00.119Z,16.79
2022-09-21T18:56:31.584Z,16.78
2022-09-21T18:58:59.837Z,16.79
2022-09-21T19:01:32.404Z,16.77
2022-09-21T19:04:00.932Z,16.71
2022-09-21T19:06:33.298Z,16.62
2022-09-21T19:09:06.200Z,16.57
2022-09-21T19:11:38.262Z,16.53
2022-09-21T19:14:11.970Z,16.53
2022-09-21T19:16:46.342Z,16.54
2022-09-21T19:19:21.427Z,16.57
2022-09-21T19:21:54.096Z,16.59
2022-09-21T19:24:27.107Z,16.64
2022-09-21T19:26:59.205Z,16.63
2022-09-21T19:29:41.603Z,16.63
2022-09-21T19:32:14.271Z,16.64
2022-09-21T19:34:42.677Z,16.62
2022-09-21T19:37:10.983Z,16.61
2022-09-21T19:39:40.067Z,16.54
2022-09-21T19:42:13.672Z,16.50
2022-09-21T19:44:55.582Z,16.47
2022-09-21T19:47:28.711Z,16.39
2022-09-21T19:50:01.372Z,16.36
2022-09-21T19:52:30.107Z,16.35
2022-09-21T19:55:16.663Z,16.32
2022-09-21T19:58:08.591Z,16.20
2022-09-21T20:00:37.454Z,16.12
2022-09-21T20:03:10.611Z,16.12
2022-09-21T20:05:47.136Z,16.09
2022-09-21T20:08:19.723Z,16.08
2022-09-21T20:11:01.619Z,16.03
2022-09-21T20:13:36.542Z,16.00
2022-09-21T20:16:19.135Z,16.01
2022-09-21T20:18:50.401Z,16.04
2022-09-21T20:21:21.677Z,16.07
2022-09-21T20:23:53.514Z,16.10
2022-09-21T20:26:24.025Z,16.10
2022-09-21T20:28:53.118Z,16.06
2022-09-21T20:31:21.927Z,15.99
2022-09-21T20:33:50.293Z,15.94
2022-09-21T20:36:18.296Z,15.86
2022-09-21T20:38:46.194Z,15.73
2022-09-21T20:41:15.831Z,15.62
2022-09-21T20:43:43.655Z,15.52
2022-09-21T20:46:11.875Z,15.42
2022-09-21T20:48:40.885Z,15.28
2022-09-21T20:51:10.380Z,15.18
2022-09-21T20:53:39.531Z,15.11
2022-09-21T20:56:07.405Z,15.02
2022-09-21T20:58:35.414Z,14.94
2022-09-21T21:01:03.703Z,14.86
2022-09-21T21:03:31.996Z,14.80
2022-09-21T21:06:09.900Z,14.71
2022-09-21T21:08:38.175Z,14.64
2022-09-21T21:11:06.498Z,14.59
2022-09-21T21:13:34.266Z,14.55
2022-09-21T21:16:06.980Z,14.56
2022-09-21T21:18:39.133Z,14.53
2022-09-21T21:21:07.001Z,14.47
2022-09-21T21:23:55.504Z,14.39
2022-09-21T21:26:38.142Z,14.30
2022-09-21T21:29:11.241Z,14.21
2022-09-21T21:31:39.849Z,14.08
2022-09-21T21:34:07.736Z,13.98
2022-09-21T21:36:35.688Z,13.90
2022-09-21T21:39:03.834Z,13.80
2022-09-21T21:41:32.131Z,13.71
2022-09-21T21:44:00.110Z,13.65
2022-09-21T21:46:28.022Z,13.59
2022-09-21T21:48:55.851Z,13.58
2022-09-21T21:51:23.726Z,13.56
2022-09-21T21:53:51.592Z,13.52
2022-09-21T21:56:22.130Z,13.52
2022-09-21T21:58:53.038Z,13.50
2022-09-21T22:01:21.964Z,13.46
2022-09-21T22:03:53.159Z,13.42
2022-09-21T22:06:21.635Z,13.39
2022-09-21T22:08:49.899Z,13.34
2022-09-21T22:11:18.018Z,13.32
2022-09-21T22:13:45.914Z,13.30
2022-09-21T22:16:14.686Z,13.27
2022-09-21T22:18:43.222Z,13.27
2022-09-21T22:21:12.431Z,13.26
2022-09-21T22:23:40.597Z,13.29
2022-09-21T22:26:10.634Z,13.31
2022-09-21T22:28:39.099Z,13.31
2022-09-21T22:31:09.391Z,13.30
2022-09-21T22:33:37.391Z,13.28
2022-09-21T22:36:06.622Z,13.26
2022-09-21T22:38:38.121Z,13.24
2022-09-21T22:41:09.610Z,13.25
2022-09-21T22:43:37.868Z,13.24
2022-09-21T22:46:06.438Z,13.25
2022-09-21T22:48:35.058Z,13.26
2022-09-21T22:51:03.321Z,13.24
2022-09-21T22:53:31.579Z,13.25
2022-09-21T22:56:03.972Z,13.25
2022-09-21T22:58:32.411Z,13.24
2022-09-21T23:01:05.035Z,13.23
2022-09-21T23:03:33.035Z,13.22
2022-09-21T23:06:01.181Z,13.23
2022-09-21T23:08:29.087Z,13.24
2022-09-21T23:11:04.570Z,13.27
2022-09-21T23:13:32.542Z,13.24
2022-09-21T23:16:01.839Z,13.21
2022-09-21T23:18:29.631Z,13.22
2022-09-21T23:20:58.405Z,13.24
2022-09-21T23:23:26.668Z,13.27
2022-09-21T23:26:01.627Z,13.30
2022-09-21T23:28:29.611Z,13.33
2022-09-21T23:30:59.635Z,13.37
2022-09-21T23:33:31.175Z,13.39
2022-09-21T23:35:59.645Z,13.41
2022-09-21T23:38:29.160Z,13.42
2022-09-21T23:41:05.052Z,13.34
2022-09-21T23:43:33.720Z,13.26
2022-09-21T23:46:02.085Z,13.20
2022-09-21T23:48:29.833Z,13.13
2022-09-21T23:50:57.611Z,13.11
2022-09-21T23:53:25.863Z,13.10
2022-09-21T23:55:54.132Z,13.08
2022-09-21T23:58:22.223Z,13.04
